Time;durP1;ratioP1;P1;durP2;ratioP2;P2;SDS_P1;SDS_P2;PMS_P1;PMS_P2;Temp;Humidity;BMP_temperature;BMP_pressure;BME280_temperature;BME280_humidity;BME280_pressure;Samples;Min_cycle;Max_cycle;Signal;HPM_P1;HPM_P2
2023/12/26 00:02:05;;;;;;;1.23;1.15;;;9.10;99.90;;;;;;5057962;28;20201;-78
2023/12/26 00:04:31;;;;;;;1.40;1.30;;;9.10;99.90;;;;;;5061111;28;20197;-79
2023/12/26 00:06:56;;;;;;;1.63;1.20;;;9.10;99.90;;;;;;5061896;28;20184;-80
2023/12/26 00:09:22;;;;;;;1.67;1.23;;;9.20;99.90;;;;;;5081023;28;20170;-80
2023/12/26 00:11:47;;;;;;;1.10;1.10;;;9.10;99.90;;;;;;5062320;28;20650;-79
2023/12/26 00:14:16;;;;;;;2.28;1.38;;;9.20;99.90;;;;;;5062395;28;20174;-85
2023/12/26 00:16:42;;;;;;;1.10;1.00;;;9.20;99.90;;;;;;5062869;28;20177;-80
2023/12/26 00:19:08;;;;;;;1.17;1.17;;;9.20;99.90;;;;;;5062547;28;20177;-80
2023/12/26 00:21:34;;;;;;;1.00;1.00;;;9.20;99.90;;;;;;5062290;28;20177;-79
2023/12/26 00:24:00;;;;;;;1.30;1.30;;;9.20;99.90;;;;;;5061559;28;20236;-80
2023/12/26 00:26:25;;;;;;;1.77;1.00;;;9.20;99.90;;;;;;5079801;28;20166;-80
2023/12/26 00:28:52;;;;;;;1.52;1.17;;;9.20;99.90;;;;;;5061644;28;20576;-79
2023/12/26 00:31:17;;;;;;;1.08;1.00;;;9.20;99.90;;;;;;5059546;28;20177;-79
2023/12/26 00:33:43;;;;;;;1.73;1.10;;;9.20;99.90;;;;;;5059206;28;20681;-78
2023/12/26 00:36:13;;;;;;;1.02;1.02;;;9.20;99.90;;;;;;5077569;28;20638;-79
2023/12/26 00:38:39;;;;;;;1.10;1.10;;;9.20;99.90;;;;;;5061132;28;20201;-80
2023/12/26 00:41:05;;;;;;;2.67;1.10;;;9.20;99.90;;;;;;5061565;28;20204;-80
2023/12/26 00:43:31;;;;;;;1.00;1.00;;;9.20;99.90;;;;;;5061062;28;20237;-80
2023/12/26 00:45:58;;;;;;;1.13;0.93;;;9.20;99.90;;;;;;5061485;28;20185;-80
2023/12/26 00:48:24;;;;;;;1.45;1.30;;;9.20;99.90;;;;;;5061946;28;20196;-80
2023/12/26 00:50:49;;;;;;;1.00;1.00;;;9.20;99.90;;;;;;5080450;28;20170;-80
2023/12/26 00:53:15;;;;;;;1.98;1.20;;;9.20;99.90;;;;;;5062392;28;20254;-79
2023/12/26 00:55:41;;;;;;;1.40;1.30;;;9.20;99.90;;;;;;5062869;28;20181;-80
2023/12/26 00:58:06;;;;;;;1.55;1.10;;;9.20;99.90;;;;;;5062384;28;20185;-80
2023/12/26 01:00:32;;;;;;;1.10;1.08;;;9.20;99.90;;;;;;5061042;28;20174;-80
2023/12/26 01:02:57;;;;;;;1.10;1.10;;;9.20;99.90;;;;;;5062041;28;20247;-80
2023/12/26 01:05:23;;;;;;;1.00;1.00;;;9.20;99.90;;;;;;5059778;28;20223;-77
2023/12/26 01:07:48;;;;;;;1.48;0.90;;;9.20;99.90;;;;;;5058058;28;20636;-77
2023/12/26 01:10:14;;;;;;;1.95;1.20;;;9.20;99.90;;;;;;5057849;28;20177;-77
2023/12/26 01:12:40;;;;;;;1.88;0.90;;;9.20;99.90;;;;;;5058136;28;20197;-77
2023/12/26 01:15:05;;;;;;;1.17;1.10;;;9.20;99.90;;;;;;5056748;28;20315;-77
2023/12/26 01:17:31;;;;;;;0.90;0.90;;;9.20;99.90;;;;;;5057641;28;20213;-77
2023/12/26 01:19:57;;;;;;;1.00;0.93;;;9.20;99.90;;;;;;5075534;28;20260;-77
2023/12/26 01:22:23;;;;;;;0.90;0.90;;;9.20;99.90;;;;;;5057564;28;20223;-77
2023/12/26 01:24:50;;;;;;;0.80;0.80;;;9.20;99.90;;;;;;5057488;28;20194;-77
2023/12/26 01:27:16;;;;;;;1.02;1.02;;;9.20;99.90;;;;;;5060151;28;20170;-79
2023/12/26 01:29:42;;;;;;;0.90;0.90;;;9.10;99.90;;;;;;5061258;28;20178;-79
2023/12/26 01:32:07;;;;;;;1.45;1.00;;;9.20;99.90;;;;;;5061667;28;20205;-79
2023/12/26 01:34:33;;;;;;;0.90;0.90;;;9.20;99.90;;;;;;5060441;28;20189;-79
2023/12/26 01:36:59;;;;;;;0.80;0.80;;;9.20;99.90;;;;;;5060785;28;20212;-79
2023/12/26 01:39:26;;;;;;;0.85;0.85;;;9.20;99.90;;;;;;5060745;28;20687;-79
2023/12/26 01:41:52;;;;;;;0.90;0.90;;;9.20;99.90;;;;;;5060681;28;20174;-79
2023/12/26 01:44:17;;;;;;;0.75;0.75;;;9.20;99.90;;;;;;5060714;28;20267;-81
2023/12/26 01:46:43;;;;;;;0.80;0.80;;;9.20;99.90;;;;;;5060935;28;20181;-80
2023/12/26 01:49:09;;;;;;;0.95;0.95;;;9.20;99.90;;;;;;5060843;28;20174;-80
2023/12/26 01:51:35;;;;;;;0.70;0.70;;;9.20;99.90;;;;;;5061300;28;20197;-80
2023/12/26 01:54:01;;;;;;;0.70;0.70;;;9.20;99.90;;;;;;5060162;28;20670;-79
2023/12/26 01:56:28;;;;;;;0.85;0.70;;;9.20;99.90;;;;;;5060301;28;20185;-80
2023/12/26 01:58:53;;;;;;;0.88;0.68;;;9.20;99.90;;;;;;5059980;28;20180;-79
2023/12/26 02:32:40;;;;;;;0.95;0.60;;;9.20;99.90;;;;;;5092374;28;20216;-87
2023/12/26 02:35:07;;;;;;;0.75;0.50;;;9.20;99.90;;;;;;5077064;28;20268;-87
2023/12/26 02:37:33;;;;;;;0.50;0.50;;;9.20;99.90;;;;;;5076164;28;20176;-87
2023/12/26 02:39:58;;;;;;;0.65;0.43;;;9.20;99.90;;;;;;5059211;28;20197;-87
2023/12/26 02:42:29;;;;;;;0.68;0.50;;;9.20;99.90;;;;;;5056374;28;20235;-87
2023/12/26 02:44:56;;;;;;;0.50;0.50;;;9.20;99.90;;;;;;5057327;28;20255;-87
2023/12/26 02:47:23;;;;;;;0.75;0.47;;;9.20;99.90;;;;;;5055994;28;20545;-87
2023/12/26 02:49:49;;;;;;;0.40;0.40;;;9.10;99.90;;;;;;5039731;28;20205;-86
2023/12/26 02:52:15;;;;;;;0.40;0.40;;;9.20;99.90;;;;;;5056152;28;20177;-87
2023/12/26 02:54:40;;;;;;;0.43;0.43;;;9.20;99.90;;;;;;5056192;28;20523;-87
2023/12/26 02:57:06;;;;;;;0.65;0.65;;;9.10;99.90;;;;;;5056050;28;20188;-87
2023/12/26 02:59:32;;;;;;;0.60;0.60;;;9.10;99.90;;;;;;5055997;28;20284;-87
2023/12/26 03:01:58;;;;;;;0.45;0.45;;;9.00;99.90;;;;;;5055679;28;20177;-87
2023/12/26 03:04:23;;;;;;;0.70;0.50;;;9.00;99.90;;;;;;5055645;28;20270;-86
2023/12/26 03:06:49;;;;;;;0.40;0.40;;;9.00;99.90;;;;;;5056006;28;20268;-87
2023/12/26 03:09:15;;;;;;;0.60;0.60;;;9.00;99.90;;;;;;5055462;28;20572;-86
2023/12/26 03:11:40;;;;;;;1.30;0.70;;;8.90;99.90;;;;;;5056309;28;20180;-87
2023/12/26 03:14:06;;;;;;;2.67;0.47;;;8.90;99.90;;;;;;5055642;28;20184;-87
2023/12/26 03:16:32;;;;;;;0.43;0.43;;;8.90;99.90;;;;;;5055546;28;20185;-87
2023/12/26 03:19:15;;;;;;;0.50;0.50;;;8.90;99.90;;;;;;5055805;28;20208;-86
2023/12/26 03:21:40;;;;;;;1.85;0.60;;;8.90;99.90;;;;;;5055528;28;20170;-87
2023/12/26 03:24:06;;;;;;;1.38;0.70;;;8.90;99.90;;;;;;5055581;28;20205;-87
2023/12/26 03:26:32;;;;;;;1.20;0.60;;;8.90;99.90;;;;;;5055766;28;20689;-87
2023/12/26 03:28:58;;;;;;;0.40;0.40;;;8.90;99.90;;;;;;5055628;28;20202;-87
2023/12/26 03:31:24;;;;;;;0.30;0.30;;;8.80;99.90;;;;;;5055495;28;20189;-87
2023/12/26 03:33:50;;;;;;;0.30;0.30;;;8.90;99.90;;;;;;5055737;28;20182;-87
2023/12/26 03:36:15;;;;;;;0.55;0.55;;;8.80;99.90;;;;;;5055409;28;20226;-87
2023/12/26 03:38:43;;;;;;;2.10;0.50;;;8.80;99.90;;;;;;5055021;28;20197;-87
2023/12/26 03:41:09;;;;;;;1.75;0.70;;;8.90;99.90;;;;;;5055251;28;20241;-87
2023/12/26 03:43:34;;;;;;;0.98;0.45;;;8.90;99.90;;;;;;5055546;28;20293;-87
2023/12/26 03:46:00;;;;;;;0.93;0.60;;;8.90;99.90;;;;;;5055229;28;20184;-87
2023/12/26 03:48:26;;;;;;;1.35;0.30;;;8.90;99.90;;;;;;5055840;28;20193;-87
2023/12/26 03:50:51;;;;;;;0.45;0.40;;;8.90;99.90;;;;;;5055065;28;20209;-87
2023/12/26 03:53:17;;;;;;;1.13;0.40;;;8.90;99.90;;;;;;5055176;28;20177;-87
2023/12/26 03:55:43;;;;;;;0.43;0.40;;;8.90;99.90;;;;;;5055106;28;20211;-87
2023/12/26 03:58:09;;;;;;;0.57;0.45;;;8.80;99.90;;;;;;5056060;28;20169;-86
2023/12/26 04:00:34;;;;;;;0.20;0.20;;;8.80;99.90;;;;;;5055436;28;20178;-87
2023/12/26 04:03:00;;;;;;;0.70;0.70;;;8.80;99.90;;;;;;5054927;28;20181;-87
2023/12/26 04:05:25;;;;;;;0.55;0.55;;;8.80;99.90;;;;;;5055310;28;20229;-87
2023/12/26 04:07:51;;;;;;;1.45;0.32;;;8.80;99.90;;;;;;5055845;28;20182;-87
2023/12/26 04:10:17;;;;;;;1.58;0.80;;;8.80;99.90;;;;;;5055021;28;20288;-87
2023/12/26 04:12:42;;;;;;;0.98;0.65;;;8.80;99.90;;;;;;5055244;28;20174;-87
2023/12/26 04:15:08;;;;;;;0.90;0.50;;;8.80;99.90;;;;;;5054937;28;20178;-87
2023/12/26 04:17:53;;;;;;;0.77;0.77;;;8.80;99.90;;;;;;5055331;28;20173;-87
2023/12/26 04:20:19;;;;;;;1.75;0.70;;;8.80;99.90;;;;;;5056027;28;20251;-87
2023/12/26 04:22:45;;;;;;;1.45;0.80;;;8.80;99.90;;;;;;5055804;28;20655;-87
2023/12/26 04:25:10;;;;;;;1.23;0.88;;;8.80;99.90;;;;;;5054760;28;20216;-87
2023/12/26 04:27:36;;;;;;;1.38;0.98;;;8.80;99.90;;;;;;5055127;28;20173;-87
2023/12/26 04:30:02;;;;;;;0.73;0.73;;;8.80;99.90;;;;;;5054782;28;20193;-87
2023/12/26 04:32:28;;;;;;;1.92;1.10;;;8.80;99.90;;;;;;5054969;28;20250;-87
2023/12/26 04:34:54;;;;;;;3.58;1.13;;;8.80;99.90;;;;;;5055925;28;20189;-86
2023/12/26 04:37:19;;;;;;;2.95;1.10;;;8.80;99.90;;;;;;5054727;28;20185;-87
2023/12/26 04:39:45;;;;;;;2.92;1.05;;;8.80;99.90;;;;;;5054620;28;20751;-87
2023/12/26 04:42:10;;;;;;;1.15;1.00;;;8.80;99.90;;;;;;5054924;28;20178;-87
2023/12/26 04:44:36;;;;;;;1.75;1.23;;;8.80;99.90;;;;;;5054608;28;20705;-87
2023/12/26 04:47:02;;;;;;;2.28;1.20;;;8.80;99.90;;;;;;5054516;28;20264;-87
2023/12/26 04:49:27;;;;;;;3.22;1.30;;;8.80;99.90;;;;;;5056168;28;20200;-87
2023/12/26 04:51:53;;;;;;;2.35;1.10;;;8.80;99.90;;;;;;5058549;28;20182;-87
2023/12/26 04:54:19;;;;;;;2.30;1.20;;;8.80;99.90;;;;;;5058423;28;20287;-87
2023/12/26 04:56:48;;;;;;;3.67;1.20;;;8.80;99.90;;;;;;5058104;28;20174;-87
2023/12/26 04:59:13;;;;;;;3.33;1.10;;;8.80;99.90;;;;;;5058345;28;20197;-87
2023/12/26 05:01:42;;;;;;;3.33;1.50;;;8.80;99.90;;;;;;5058405;28;20182;-87
2023/12/26 05:04:10;;;;;;;2.25;1.40;;;8.80;99.90;;;;;;5058713;28;20212;-87
2023/12/26 05:06:37;;;;;;;4.22;1.42;;;8.70;99.90;;;;;;5057826;28;20173;-87
2023/12/26 05:09:03;;;;;;;1.92;1.23;;;8.70;99.90;;;;;;5057748;28;20189;-87
2023/12/26 05:11:28;;;;;;;3.03;1.48;;;8.70;99.90;;;;;;5057901;28;20174;-87
2023/12/26 05:13:54;;;;;;;1.92;1.35;;;8.60;99.90;;;;;;5057922;28;20188;-87
2023/12/26 05:16:20;;;;;;;3.65;1.83;;;8.60;99.90;;;;;;5058560;28;20225;-87
2023/12/26 05:18:58;;;;;;;5.75;1.60;;;8.60;99.90;;;;;;5058167;28;20197;-87
2023/12/26 05:21:24;;;;;;;4.72;1.67;;;8.60;99.90;;;;;;5058290;28;20166;-87
2023/12/26 05:23:49;;;;;;;2.17;1.60;;;8.60;99.90;;;;;;5057582;28;20203;-87
2023/12/26 05:26:15;;;;;;;4.20;1.73;;;8.60;99.90;;;;;;5058394;28;20182;-87
2023/12/26 05:28:41;;;;;;;3.10;1.67;;;8.50;99.90;;;;;;5058112;28;20334;-87
2023/12/26 05:31:07;;;;;;;2.88;1.60;;;8.50;99.90;;;;;;5057404;28;20201;-87
2023/12/26 05:33:33;;;;;;;5.95;1.70;;;8.50;99.90;;;;;;5058025;28;20177;-87
2023/12/26 05:36:00;;;;;;;4.07;1.80;;;8.50;99.90;;;;;;5057619;28;20640;-86
2023/12/26 05:38:26;;;;;;;4.93;2.00;;;8.40;99.90;;;;;;5057220;28;20204;-86
2023/12/26 05:40:55;;;;;;;4.95;1.80;;;8.50;99.90;;;;;;5057378;28;20178;-87
2023/12/26 05:43:20;;;;;;;5.88;1.83;;;8.40;99.90;;;;;;5057924;28;20272;-86
2023/12/26 05:45:46;;;;;;;4.65;2.10;;;8.50;99.90;;;;;;5057193;28;20307;-86
2023/12/26 05:48:11;;;;;;;5.70;2.00;;;8.40;99.90;;;;;;5057781;28;20194;-86
2023/12/26 05:50:37;;;;;;;3.72;1.85;;;8.50;99.90;;;;;;5058197;28;20174;-86
2023/12/26 05:53:03;;;;;;;6.00;2.25;;;8.50;99.90;;;;;;5058199;28;20200;-87
2023/12/26 05:55:28;;;;;;;3.58;2.10;;;8.50;99.90;;;;;;5057816;28;20185;-86
2023/12/26 05:57:54;;;;;;;4.97;1.80;;;8.40;99.90;;;;;;5057540;28;20182;-86
2023/12/26 06:00:20;;;;;;;5.13;2.15;;;8.50;99.90;;;;;;5056603;28;20205;-86
2023/12/26 06:02:46;;;;;;;4.50;1.92;;;8.40;99.90;;;;;;5056910;28;20185;-86
2023/12/26 06:05:11;;;;;;;4.32;1.92;;;8.40;99.90;;;;;;5056653;28;20206;-86
2023/12/26 06:07:37;;;;;;;3.90;1.83;;;8.40;99.90;;;;;;5056798;28;20204;-86
2023/12/26 06:10:04;;;;;;;4.03;1.92;;;8.40;99.90;;;;;;5056976;28;20267;-86
2023/12/26 06:12:30;;;;;;;4.85;1.88;;;8.40;99.90;;;;;;5057063;28;20173;-86
2023/12/26 06:14:55;;;;;;;8.02;2.42;;;8.40;99.90;;;;;;5056609;28;20188;-86
2023/12/26 06:17:22;;;;;;;3.75;1.95;;;8.40;99.90;;;;;;5056976;28;20185;-86
2023/12/26 06:19:48;;;;;;;2.90;1.80;;;8.40;99.90;;;;;;5056470;28;20254;-86
2023/12/26 06:22:14;;;;;;;5.88;2.13;;;8.40;99.90;;;;;;5057229;28;20201;-86
2023/12/26 06:24:39;;;;;;;4.63;2.08;;;8.30;99.90;;;;;;5056829;28;20667;-86
2023/12/26 06:27:05;;;;;;;4.03;1.83;;;8.40;99.90;;;;;;5056259;28;20232;-86
2023/12/26 06:29:31;;;;;;;3.90;2.10;;;8.30;99.90;;;;;;5056246;28;20193;-86
2023/12/26 06:31:57;;;;;;;5.78;2.20;;;8.30;99.90;;;;;;5056517;28;20181;-86
2023/12/26 06:34:23;;;;;;;4.20;2.08;;;8.30;99.90;;;;;;5056273;28;20185;-86
2023/12/26 06:36:49;;;;;;;4.22;1.95;;;8.30;99.90;;;;;;5056498;28;20181;-86
2023/12/26 06:39:15;;;;;;;5.78;2.13;;;8.30;99.90;;;;;;5056386;28;20197;-86
2023/12/26 06:41:42;;;;;;;6.93;2.45;;;8.30;99.90;;;;;;5056378;28;20539;-86
2023/12/26 06:44:08;;;;;;;3.25;1.88;;;8.30;99.90;;;;;;5056368;28;20663;-86
2023/12/26 06:46:42;;;;;;;4.35;1.98;;;8.30;99.90;;;;;;5055999;28;20173;-86
2023/12/26 06:49:08;;;;;;;4.32;2.20;;;8.30;99.90;;;;;;5056059;28;20193;-86
2023/12/26 06:51:39;;;;;;;6.22;2.50;;;8.30;99.90;;;;;;5055997;28;20197;-86
2023/12/26 06:54:05;;;;;;;5.50;1.92;;;8.30;99.90;;;;;;5048371;28;20174;-86
2023/12/26 06:56:31;;;;;;;3.78;2.25;;;8.30;99.90;;;;;;5056105;28;20207;-86
2023/12/26 06:58:57;;;;;;;4.82;2.10;;;8.30;99.90;;;;;;5056059;28;20224;-86
2023/12/26 07:01:23;;;;;;;8.23;2.67;;;8.40;99.90;;;;;;5056877;28;20181;-86
2023/12/26 07:03:49;;;;;;;5.05;3.33;;;8.40;99.90;;;;;;5056208;28;20728;-86
2023/12/26 07:06:14;;;;;;;7.45;3.75;;;8.40;99.90;;;;;;5056576;28;20680;-86
2023/12/26 07:08:40;;;;;;;10.35;6.15;;;8.40;99.90;;;;;;5055603;28;20205;-86
2023/12/26 07:11:06;;;;;;;114.43;80.93;;;8.40;99.90;;;;;;5055316;28;20169;-86
2023/12/26 07:13:31;;;;;;;25.35;18.90;;;8.30;99.90;;;;;;5055047;28;20184;-86
2023/12/26 07:15:57;;;;;;;15.82;12.82;;;8.40;99.90;;;;;;5073467;28;20170;-86
2023/12/26 07:18:23;;;;;;;10.10;7.13;;;8.40;99.90;;;;;;5055443;28;20201;-86
2023/12/26 07:20:48;;;;;;;9.68;6.97;;;8.30;99.90;;;;;;5055571;28;20177;-86
2023/12/26 07:23:14;;;;;;;12.57;6.30;;;8.30;99.90;;;;;;5055748;28;20173;-87
2023/12/26 07:25:41;;;;;;;4.97;3.60;;;8.30;99.90;;;;;;5055656;28;20216;-86
2023/12/26 07:28:06;;;;;;;9.02;3.70;;;8.30;99.90;;;;;;5055396;28;20182;-86
2023/12/26 07:30:32;;;;;;;8.55;3.58;;;8.30;99.90;;;;;;5073298;28;20182;-86
2023/12/26 07:32:58;;;;;;;6.70;3.42;;;8.30;99.90;;;;;;5056238;28;20169;-86
2023/12/26 07:35:24;;;;;;;5.22;3.00;;;8.30;99.90;;;;;;5056166;28;20269;-86
2023/12/26 07:37:50;;;;;;;7.57;3.25;;;8.30;99.90;;;;;;5055366;28;20185;-86
2023/12/26 07:40:16;;;;;;;7.22;5.32;;;8.30;99.90;;;;;;5055198;28;20193;-86
2023/12/26 07:42:42;;;;;;;6.95;3.42;;;8.30;99.90;;;;;;5055177;28;20184;-86
2023/12/26 07:45:08;;;;;;;6.53;3.40;;;8.40;99.90;;;;;;5055997;28;20205;-86
2023/12/26 07:47:54;;;;;;;6.28;2.55;;;8.40;99.90;;;;;;5056037;28;20235;-86
2023/12/26 07:50:21;;;;;;;9.40;2.95;;;8.40;99.90;;;;;;5055034;28;20284;-86
2023/12/26 07:52:47;;;;;;;6.55;3.20;;;8.40;99.90;;;;;;5055512;28;20178;-86
2023/12/26 07:55:12;;;;;;;4.65;2.95;;;8.40;99.90;;;;;;5055506;28;20178;-86
2023/12/26 07:57:38;;;;;;;7.68;2.65;;;8.40;99.90;;;;;;5055245;28;20639;-86
2023/12/26 08:00:04;;;;;;;6.68;2.75;;;8.40;99.90;;;;;;5055391;28;20231;-86
2023/12/26 08:02:30;;;;;;;6.70;2.40;;;8.40;99.90;;;;;;5055401;28;20178;-86
2023/12/26 08:04:56;;;;;;;7.30;2.40;;;8.40;99.90;;;;;;5055097;28;20224;-86
2023/12/26 08:07:21;;;;;;;5.70;2.78;;;8.40;99.90;;;;;;5055217;28;20252;-86
2023/12/26 08:09:47;;;;;;;5.75;2.70;;;8.40;99.90;;;;;;5055256;28;20208;-86
2023/12/26 08:12:15;;;;;;;9.88;3.10;;;8.40;99.90;;;;;;5054957;28;20184;-86
2023/12/26 08:14:41;;;;;;;5.25;3.20;;;8.40;99.90;;;;;;5055758;28;20657;-87
2023/12/26 08:17:19;;;;;;;6.60;2.80;;;8.40;99.90;;;;;;5054952;28;20178;-87
2023/12/26 08:19:44;;;;;;;5.03;2.10;;;8.50;99.90;;;;;;5055200;28;20778;-87
2023/12/26 08:22:10;;;;;;;3.22;1.85;;;8.50;99.90;;;;;;5055298;28;20216;-87
2023/12/26 08:24:36;;;;;;;4.40;1.90;;;8.50;99.90;;;;;;5057996;28;20239;-87
2023/12/26 08:27:01;;;;;;;6.45;2.25;;;8.50;99.90;;;;;;5059109;28;20173;-87
2023/12/26 08:29:27;;;;;;;4.40;2.40;;;8.50;99.90;;;;;;5058996;28;20193;-87
2023/12/26 08:31:53;;;;;;;5.90;2.92;;;8.50;99.90;;;;;;5058533;28;20216;-87
2023/12/26 08:34:20;;;;;;;7.93;2.88;;;8.50;99.90;;;;;;5058915;28;20204;-87
2023/12/26 08:36:48;;;;;;;9.30;2.80;;;8.50;99.90;;;;;;5058506;28;20181;-87
2023/12/26 08:39:13;;;;;;;5.07;2.15;;;8.60;99.90;;;;;;5058376;28;20197;-87
2023/12/26 08:41:39;;;;;;;4.00;2.60;;;8.60;99.90;;;;;;5058458;28;20182;-87
2023/12/26 08:44:05;;;;;;;7.03;3.03;;;8.60;99.90;;;;;;5059063;28;20210;-87
2023/12/26 08:46:31;;;;;;;6.75;3.70;;;8.60;99.90;;;;;;5059370;28;20174;-87
2023/12/26 08:48:57;;;;;;;4.78;3.10;;;8.70;99.90;;;;;;5058249;28;20664;-87
2023/12/26 08:51:22;;;;;;;4.35;3.47;;;8.70;99.90;;;;;;5059340;28;20208;-87
2023/12/26 08:53:48;;;;;;;3.90;3.03;;;8.70;99.90;;;;;;5058529;28;20227;-87
2023/12/26 08:56:14;;;;;;;5.82;3.50;;;8.70;99.90;;;;;;5058955;28;20223;-87
2023/12/26 08:58:40;;;;;;;4.55;3.00;;;8.70;99.90;;;;;;5057979;28;20197;-86
2023/12/26 09:01:09;;;;;;;9.13;2.97;;;8.80;99.90;;;;;;5057928;28;20173;-86
2023/12/26 09:03:35;;;;;;;6.03;2.90;;;8.80;99.90;;;;;;5058331;28;20173;-86
2023/12/26 09:06:00;;;;;;;5.38;2.88;;;8.80;99.90;;;;;;5057962;28;20240;-86
2023/12/26 09:08:26;;;;;;;6.53;2.10;;;8.80;99.90;;;;;;5057885;28;20200;-86
2023/12/26 09:10:52;;;;;;;4.05;2.40;;;8.80;99.90;;;;;;5058249;28;20212;-87
2023/12/26 09:13:20;;;;;;;6.65;2.30;;;8.80;99.90;;;;;;5058407;28;20546;-87
2023/12/26 09:15:49;;;;;;;4.55;2.20;;;8.90;99.90;;;;;;5058261;28;20258;-87
2023/12/26 09:18:28;;;;;;;6.85;2.10;;;8.90;99.90;;;;;;5058506;28;20182;-87
2023/12/26 09:20:54;;;;;;;9.18;2.30;;;9.00;99.90;;;;;;5041329;28;20181;-87
2023/12/26 09:23:20;;;;;;;3.95;2.20;;;9.00;99.90;;;;;;5057525;28;20188;-87
2023/12/26 09:25:46;;;;;;;10.20;2.90;;;9.00;99.90;;;;;;5057687;28;20213;-87
2023/12/26 09:28:13;;;;;;;6.57;2.30;;;9.00;99.90;;;;;;5057870;28;20181;-87
2023/12/26 09:30:38;;;;;;;4.82;2.30;;;8.90;99.90;;;;;;5057422;28;20186;-87
2023/12/26 09:33:04;;;;;;;7.57;2.63;;;8.90;99.90;;;;;;5075593;28;20173;-87
2023/12/26 09:35:31;;;;;;;7.68;2.70;;;8.90;99.90;;;;;;5056889;28;20183;-87
2023/12/26 09:37:56;;;;;;;8.48;3.28;;;8.90;99.90;;;;;;5057268;28;20185;-87
2023/12/26 09:40:22;;;;;;;13.38;7.78;;;8.90;99.90;;;;;;5058251;28;20184;-87
2023/12/26 09:42:48;;;;;;;13.60;8.65;;;8.90;99.90;;;;;;5057835;28;20268;-87
2023/12/26 09:45:13;;;;;;;10.10;8.02;;;9.00;99.90;;;;;;5058112;28;20234;-87
2023/12/26 09:47:43;;;;;;;12.15;7.05;;;9.00;99.90;;;;;;5057468;28;20174;-87
2023/12/26 09:50:12;;;;;;;13.27;8.43;;;9.00;99.90;;;;;;5057455;28;20194;-87
2023/12/26 09:52:39;;;;;;;11.15;7.50;;;9.10;99.90;;;;;;5057810;28;20588;-87
2023/12/26 09:55:05;;;;;;;11.43;7.32;;;9.10;99.90;;;;;;5057328;28;20178;-87
2023/12/26 09:57:31;;;;;;;13.77;9.15;;;9.20;99.90;;;;;;5057201;28;20264;-87
2023/12/26 09:59:57;;;;;;;14.15;10.52;;;9.30;99.90;;;;;;5057739;28;20300;-87
2023/12/26 10:02:23;;;;;;;8.45;5.63;;;9.40;99.90;;;;;;5056954;28;20671;-87
2023/12/26 10:04:49;;;;;;;22.55;16.75;;;9.40;99.90;;;;;;5056734;28;20236;-87
2023/12/26 10:07:17;;;;;;;27.42;20.88;;;9.40;99.90;;;;;;5056901;28;20544;-86
2023/12/26 10:09:43;;;;;;;13.43;9.90;;;9.50;99.90;;;;;;5056747;28;20202;-86
2023/12/26 10:12:09;;;;;;;10.35;4.97;;;9.50;99.90;;;;;;5057178;28;20177;-86
2023/12/26 10:14:35;;;;;;;6.03;3.47;;;9.40;99.90;;;;;;5056839;28;20246;-87
2023/12/26 10:17:01;;;;;;;6.32;2.20;;;9.40;99.90;;;;;;5056642;28;20235;-87
2023/12/26 10:19:27;;;;;;;3.85;2.00;;;9.40;99.90;;;;;;5056541;28;20201;-86
2023/12/26 10:21:53;;;;;;;6.32;2.15;;;9.50;99.90;;;;;;5057017;28;20264;-86
2023/12/26 10:24:20;;;;;;;5.30;1.90;;;9.50;99.90;;;;;;5056427;28;20616;-86
2023/12/26 10:26:48;;;;;;;4.18;3.25;;;9.60;99.90;;;;;;5057062;28;20196;-86
2023/12/26 10:29:15;;;;;;;5.80;3.22;;;9.60;99.90;;;;;;5056417;28;20198;-86
2023/12/26 10:31:42;;;;;;;4.22;2.20;;;9.60;99.90;;;;;;5056263;28;20204;-86
2023/12/26 10:34:19;;;;;;;9.98;6.38;;;9.60;99.90;;;;;;5056903;28;20185;-86
2023/12/26 10:36:50;;;;;;;4.65;2.60;;;9.60;99.90;;;;;;5056578;28;20204;-87
2023/12/26 10:39:16;;;;;;;6.35;1.92;;;9.60;99.90;;;;;;5056829;28;20288;-86
2023/12/26 10:41:49;;;;;;;2.35;1.67;;;9.60;99.90;;;;;;5056310;28;20178;-86
2023/12/26 10:44:16;;;;;;;3.42;1.70;;;9.70;99.90;;;;;;5057044;28;20201;-86
2023/12/26 10:46:43;;;;;;;4.15;1.77;;;9.70;99.90;;;;;;5056264;28;20235;-88
2023/12/26 10:49:21;;;;;;;5.03;1.70;;;9.60;99.90;;;;;;5056271;28;20202;-87
2023/12/26 10:51:50;;;;;;;3.38;1.50;;;9.50;99.90;;;;;;5056462;28;20177;-86
2023/12/26 10:54:21;;;;;;;3.35;1.40;;;9.50;99.90;;;;;;5055872;28;20230;-86
2023/12/26 10:56:50;;;;;;;4.65;1.77;;;9.40;99.90;;;;;;5056121;28;20178;-86
2023/12/26 13:53:22;;;;;;;2.70;1.00;;;9.80;99.90;;;;;;5075423;28;20241;-86
2023/12/26 13:56:25;;;;;;;1.77;0.85;;;9.80;99.90;;;;;;5057549;28;20176;-86
2023/12/26 13:59:28;;;;;;;1.65;0.88;;;9.80;99.90;;;;;;5056870;28;20235;-86
2023/12/26 14:02:32;;;;;;;2.42;1.20;;;9.80;99.90;;;;;;5057255;28;20256;-86
2023/12/26 14:05:35;;;;;;;2.35;0.90;;;9.70;99.90;;;;;;5056720;28;20230;-86
2023/12/26 14:08:38;;;;;;;1.25;0.90;;;9.60;99.90;;;;;;5056792;28;20195;-86
2023/12/26 14:11:41;;;;;;;2.42;0.93;;;9.50;99.90;;;;;;5056852;28;20250;-86
2023/12/26 14:14:44;;;;;;;1.52;0.90;;;9.40;99.90;;;;;;5056675;28;20655;-86
2023/12/26 14:17:47;;;;;;;1.08;0.90;;;9.40;99.90;;;;;;5057115;28;20547;-86
2023/12/26 14:20:50;;;;;;;2.17;1.10;;;9.30;99.90;;;;;;5056820;28;20742;-86
2023/12/26 14:23:53;;;;;;;1.55;0.95;;;9.20;99.90;;;;;;5056446;28;20178;-86
2023/12/26 14:26:57;;;;;;;2.90;1.00;;;9.10;99.90;;;;;;5057247;28;20189;-86
2023/12/26 14:30:00;;;;;;;1.42;0.90;;;9.10;99.90;;;;;;5056365;28;20200;-86
2023/12/26 14:33:03;;;;;;;1.25;0.80;;;9.10;99.90;;;;;;5057042;28;20232;-86
2023/12/26 14:36:07;;;;;;;1.75;1.02;;;9.10;99.90;;;;;;5056491;28;20202;-86
2023/12/26 14:39:10;;;;;;;1.90;1.23;;;9.00;99.90;;;;;;5057051;28;20196;-86
2023/12/26 14:42:14;;;;;;;2.80;0.77;;;9.10;99.90;;;;;;5056228;28;20174;-86
2023/12/26 14:45:17;;;;;;;0.90;0.90;;;9.00;99.90;;;;;;5056066;28;20212;-86
2023/12/26 14:48:20;;;;;;;3.40;1.25;;;9.00;99.90;;;;;;5056969;28;20208;-86
2023/12/26 14:51:23;;;;;;;1.92;1.20;;;8.90;99.90;;;;;;5056259;28;20169;-86
2023/12/26 14:54:26;;;;;;;0.95;0.90;;;8.90;99.90;;;;;;5055866;28;20188;-86
2023/12/26 14:57:30;;;;;;;1.50;1.00;;;8.90;99.90;;;;;;5056801;28;20174;-86
2023/12/26 15:00:33;;;;;;;1.25;0.90;;;8.80;99.90;;;;;;5055791;28;20189;-86
2023/12/26 15:02:59;;;;;;;1.42;1.10;;;8.80;99.90;;;;;;5056423;28;20176;-86
2023/12/26 15:05:25;;;;;;;3.80;1.10;;;8.80;99.90;;;;;;5040648;28;20202;-86
2023/12/26 15:07:53;;;;;;;12.45;11.15;;;8.80;99.90;;;;;;5074218;28;20174;-87
2023/12/26 15:10:19;;;;;;;17.90;14.65;;;8.90;99.90;;;;;;5056174;28;20296;-88
2023/12/26 15:12:45;;;;;;;9.32;8.32;;;8.80;99.90;;;;;;5055916;28;20204;-87
2023/12/26 15:15:10;;;;;;;8.60;6.82;;;8.80;99.90;;;;;;5055892;28;20166;-86
2023/12/26 15:17:39;;;;;;;4.85;3.50;;;8.90;99.90;;;;;;5055992;28;20166;-86
2023/12/26 15:20:05;;;;;;;4.30;2.30;;;8.80;99.90;;;;;;5056134;28;20257;-86
2023/12/26 15:22:31;;;;;;;2.70;1.20;;;8.80;99.90;;;;;;5056224;28;20162;-86
2023/12/26 15:24:57;;;;;;;1.80;1.70;;;8.80;99.90;;;;;;5055801;28;20216;-86
2023/12/26 15:27:26;;;;;;;1.38;1.27;;;8.80;99.90;;;;;;5056039;28;20177;-86
2023/12/26 15:30:32;;;;;;;2.15;1.55;;;8.80;99.90;;;;;;5056270;28;20214;-87
2023/12/26 15:32:58;;;;;;;1.95;1.50;;;8.80;99.90;;;;;;5055400;28;20216;-87
2023/12/26 15:35:25;;;;;;;3.53;1.20;;;8.80;99.90;;;;;;5056127;28;20544;-86
2023/12/26 15:38:03;;;;;;;2.00;1.30;;;8.80;99.90;;;;;;5056119;28;20185;-86
2023/12/26 15:40:29;;;;;;;3.17;1.45;;;8.80;99.90;;;;;;5055508;28;20174;-86
2023/12/26 15:42:57;;;;;;;1.42;1.10;;;8.80;99.90;;;;;;5055965;28;20166;-86
2023/12/26 15:45:22;;;;;;;1.73;1.10;;;8.80;99.90;;;;;;5056036;28;20220;-87
2023/12/26 15:47:48;;;;;;;1.77;1.10;;;8.90;99.90;;;;;;5055237;28;20169;-86
2023/12/26 15:50:14;;;;;;;2.55;1.40;;;8.90;99.90;;;;;;5055765;28;20194;-86
2023/12/26 15:52:39;;;;;;;2.90;1.15;;;8.90;99.90;;;;;;5055769;28;20170;-87
2023/12/26 15:55:05;;;;;;;2.20;1.10;;;8.90;99.90;;;;;;5055532;28;20209;-86
2023/12/26 15:57:31;;;;;;;4.65;1.45;;;8.90;99.90;;;;;;5055604;28;20186;-86
2023/12/26 15:59:56;;;;;;;3.28;1.35;;;8.90;99.90;;;;;;5054171;28;20240;-86
2023/12/26 16:02:22;;;;;;;3.25;1.45;;;8.90;99.90;;;;;;5053356;28;20215;-86
2023/12/26 16:04:48;;;;;;;5.03;1.60;;;8.90;99.90;;;;;;5055410;28;20201;-86
2023/12/26 16:07:14;;;;;;;3.63;1.77;;;8.80;99.90;;;;;;5055325;28;20227;-86
2023/12/26 16:09:44;;;;;;;1.85;1.73;;;8.80;99.90;;;;;;5055179;28;20200;-86
2023/12/26 16:12:09;;;;;;;1.77;1.30;;;8.80;99.90;;;;;;5055579;28;20273;-87
2023/12/26 16:14:36;;;;;;;2.85;1.33;;;8.70;99.90;;;;;;5055108;28;20209;-86
2023/12/26 16:17:02;;;;;;;4.35;1.30;;;8.70;99.90;;;;;;5054956;28;20587;-86
2023/12/26 16:19:28;;;;;;;2.97;1.30;;;8.70;99.90;;;;;;5054937;28;20197;-86
2023/12/26 16:21:54;;;;;;;2.13;1.40;;;8.70;99.90;;;;;;5055158;28;20201;-86
2023/12/26 16:24:20;;;;;;;5.70;1.30;;;8.70;99.90;;;;;;5055876;28;20622;-87
2023/12/26 16:26:46;;;;;;;2.47;1.33;;;8.80;99.90;;;;;;5055350;28;20222;-86
2023/12/26 16:29:12;;;;;;;3.70;1.15;;;8.80;99.90;;;;;;5054900;28;20225;-86
2023/12/26 16:31:38;;;;;;;3.40;1.27;;;8.70;99.90;;;;;;5054944;28;20240;-86